sensor_id;sensor_type;location;lat;lon;timestamp;temperature;humidity
12604;DHT22;6367;52.508;13.284;2023-07-31T00:00:48;19.60;99.90
12604;DHT22;6367;52.508;13.284;2023-07-31T00:03:14;19.60;99.90
12604;DHT22;6367;52.508;13.284;2023-07-31T00:05:39;19.50;99.90
12604;DHT22;6367;52.508;13.284;2023-07-31T00:08:05;19.50;99.90
12604;DHT22;6367;52.508;13.284;2023-07-31T00:10:31;19.70;99.90
12604;DHT22;6367;52.508;13.284;2023-07-31T00:12:56;19.30;99.90
12604;DHT22;6367;52.508;13.284;2023-07-31T00:15:22;19.20;99.90
12604;DHT22;6367;52.508;13.284;2023-07-31T00:17:48;19.20;99.90
12604;DHT22;6367;52.508;13.284;2023-07-31T00:20:13;19.20;99.90
12604;DHT22;6367;52.508;13.284;2023-07-31T00:22:39;19.20;99.90
12604;DHT22;6367;52.508;13.284;2023-07-31T00:25:05;19.20;99.90
12604;DHT22;6367;52.508;13.284;2023-07-31T00:27:32;19.10;99.90
12604;DHT22;6367;52.508;13.284;2023-07-31T00:29:58;19.00;99.90
12604;DHT22;6367;52.508;13.284;2023-07-31T00:32:23;19.00;99.90
12604;DHT22;6367;52.508;13.284;2023-07-31T00:34:49;19.10;99.90
12604;DHT22;6367;52.508;13.284;2023-07-31T00:37:14;19.00;99.90
12604;DHT22;6367;52.508;13.284;2023-07-31T00:39:41;19.00;99.90
12604;DHT22;6367;52.508;13.284;2023-07-31T00:42:07;19.10;99.90
12604;DHT22;6367;52.508;13.284;2023-07-31T00:44:33;19.00;99.90
12604;DHT22;6367;52.508;13.284;2023-07-31T00:46:59;19.00;99.90
12604;DHT22;6367;52.508;13.284;2023-07-31T00:49:25;19.00;99.90
12604;DHT22;6367;52.508;13.284;2023-07-31T00:51:51;19.10;99.90
12604;DHT22;6367;52.508;13.284;2023-07-31T00:54:17;19.00;99.90
12604;DHT22;6367;52.508;13.284;2023-07-31T00:56:45;19.10;99.90
12604;DHT22;6367;52.508;13.284;2023-07-31T00:59:11;19.10;99.90
12604;DHT22;6367;52.508;13.284;2023-07-31T01:01:37;19.10;99.90
12604;DHT22;6367;52.508;13.284;2023-07-31T01:04:03;19.00;99.90
12604;DHT22;6367;52.508;13.284;2023-07-31T01:06:40;19.10;99.90
12604;DHT22;6367;52.508;13.284;2023-07-31T01:09:13;19.10;99.90
12604;DHT22;6367;52.508;13.284;2023-07-31T01:11:51;19.10;99.90
12604;DHT22;6367;52.508;13.284;2023-07-31T01:14:18;19.10;99.90
12604;DHT22;6367;52.508;13.284;2023-07-31T01:16:43;19.10;99.90
12604;DHT22;6367;52.508;13.284;2023-07-31T01:19:10;19.10;99.90
12604;DHT22;6367;52.508;13.284;2023-07-31T01:24:17;19.00;99.90
12604;DHT22;6367;52.508;13.284;2023-07-31T01:26:49;19.10;99.90
12604;DHT22;6367;52.508;13.284;2023-07-31T01:29:35;19.20;99.90
12604;DHT22;6367;52.508;13.284;2023-07-31T01:32:02;19.20;99.90
12604;DHT22;6367;52.508;13.284;2023-07-31T01:34:29;19.20;99.90
12604;DHT22;6367;52.508;13.284;2023-07-31T01:36:56;19.10;99.90
12604;DHT22;6367;52.508;13.284;2023-07-31T01:39:23;19.20;99.90
12604;DHT22;6367;52.508;13.284;2023-07-31T01:41:49;19.20;99.90
12604;DHT22;6367;52.508;13.284;2023-07-31T01:44:15;19.30;99.90
12604;DHT22;6367;52.508;13.284;2023-07-31T01:46:41;19.20;99.90
12604;DHT22;6367;52.508;13.284;2023-07-31T01:49:06;19.20;99.90
12604;DHT22;6367;52.508;13.284;2023-07-31T01:51:32;19.20;99.90
12604;DHT22;6367;52.508;13.284;2023-07-31T01:54:01;18.80;99.90
12604;DHT22;6367;52.508;13.284;2023-07-31T01:56:27;19.20;99.90
12604;DHT22;6367;52.508;13.284;2023-07-31T01:58:53;19.20;99.90
12604;DHT22;6367;52.508;13.284;2023-07-31T02:01:19;19.20;99.90
12604;DHT22;6367;52.508;13.284;2023-07-31T02:03:44;19.20;99.90
12604;DHT22;6367;52.508;13.284;2023-07-31T02:06:10;19.30;99.90
12604;DHT22;6367;52.508;13.284;2023-07-31T02:08:36;19.40;99.90
12604;DHT22;6367;52.508;13.284;2023-07-31T02:11:01;19.30;99.90
12604;DHT22;6367;52.508;13.284;2023-07-31T02:13:27;19.40;99.90
12604;DHT22;6367;52.508;13.284;2023-07-31T02:15:53;19.20;99.90
12604;DHT22;6367;52.508;13.284;2023-07-31T02:18:19;19.20;99.90
12604;DHT22;6367;52.508;13.284;2023-07-31T02:20:49;19.20;99.90
12604;DHT22;6367;52.508;13.284;2023-07-31T02:23:15;19.20;99.90
12604;DHT22;6367;52.508;13.284;2023-07-31T02:25:40;19.10;99.90
12604;DHT22;6367;52.508;13.284;2023-07-31T02:28:06;19.20;99.90
12604;DHT22;6367;52.508;13.284;2023-07-31T02:30:32;19.30;99.90
12604;DHT22;6367;52.508;13.284;2023-07-31T02:32:57;19.20;99.90
12604;DHT22;6367;52.508;13.284;2023-07-31T02:35:23;19.20;99.90
12604;DHT22;6367;52.508;13.284;2023-07-31T02:37:49;19.20;99.90
12604;DHT22;6367;52.508;13.284;2023-07-31T02:40:14;19.30;99.90
12604;DHT22;6367;52.508;13.284;2023-07-31T02:42:40;19.30;99.90
12604;DHT22;6367;52.508;13.284;2023-07-31T02:45:06;19.30;99.90
12604;DHT22;6367;52.508;13.284;2023-07-31T02:47:32;19.40;99.90
12604;DHT22;6367;52.508;13.284;2023-07-31T02:49:57;19.40;99.90
12604;DHT22;6367;52.508;13.284;2023-07-31T02:52:24;19.50;99.90
12604;DHT22;6367;52.508;13.284;2023-07-31T02:54:50;19.40;99.90
12604;DHT22;6367;52.508;13.284;2023-07-31T02:57:16;19.40;99.90
12604;DHT22;6367;52.508;13.284;2023-07-31T02:59:41;19.30;99.90
12604;DHT22;6367;52.508;13.284;2023-07-31T03:02:07;19.30;99.90
12604;DHT22;6367;52.508;13.284;2023-07-31T03:04:32;19.40;99.90
12604;DHT22;6367;52.508;13.284;2023-07-31T03:06:58;19.40;99.90
12604;DHT22;6367;52.508;13.284;2023-07-31T03:09:24;19.30;99.90
12604;DHT22;6367;52.508;13.284;2023-07-31T03:11:49;19.30;99.90
12604;DHT22;6367;52.508;13.284;2023-07-31T03:14:15;19.40;99.90
12604;DHT22;6367;52.508;13.284;2023-07-31T03:16:40;19.40;99.90
12604;DHT22;6367;52.508;13.284;2023-07-31T03:19:06;19.40;99.90
12604;DHT22;6367;52.508;13.284;2023-07-31T03:21:32;19.40;99.90
12604;DHT22;6367;52.508;13.284;2023-07-31T03:23:57;19.40;99.90
12604;DHT22;6367;52.508;13.284;2023-07-31T03:26:23;19.40;99.90
12604;DHT22;6367;52.508;13.284;2023-07-31T03:28:49;19.30;99.90
12604;DHT22;6367;52.508;13.284;2023-07-31T03:31:15;19.30;99.90
12604;DHT22;6367;52.508;13.284;2023-07-31T03:33:40;19.30;99.90
12604;DHT22;6367;52.508;13.284;2023-07-31T03:36:06;19.30;99.90
12604;DHT22;6367;52.508;13.284;2023-07-31T03:38:34;19.30;99.90
12604;DHT22;6367;52.508;13.284;2023-07-31T03:41:00;19.40;99.90
12604;DHT22;6367;52.508;13.284;2023-07-31T03:43:25;19.40;99.90
12604;DHT22;6367;52.508;13.284;2023-07-31T03:45:51;19.40;99.90
12604;DHT22;6367;52.508;13.284;2023-07-31T03:48:17;19.30;99.90
12604;DHT22;6367;52.508;13.284;2023-07-31T03:50:42;19.30;99.90
12604;DHT22;6367;52.508;13.284;2023-07-31T03:53:08;19.30;99.90
12604;DHT22;6367;52.508;13.284;2023-07-31T03:55:34;19.30;99.90
12604;DHT22;6367;52.508;13.284;2023-07-31T03:57:59;19.30;99.90
12604;DHT22;6367;52.508;13.284;2023-07-31T04:00:28;19.30;99.90
12604;DHT22;6367;52.508;13.284;2023-07-31T04:02:53;19.30;99.90
12604;DHT22;6367;52.508;13.284;2023-07-31T04:05:19;19.20;99.90
12604;DHT22;6367;52.508;13.284;2023-07-31T04:07:45;19.20;99.90
12604;DHT22;6367;52.508;13.284;2023-07-31T04:10:10;19.20;99.90
12604;DHT22;6367;52.508;13.284;2023-07-31T04:12:36;19.20;99.90
12604;DHT22;6367;52.508;13.284;2023-07-31T04:15:02;19.30;99.90
12604;DHT22;6367;52.508;13.284;2023-07-31T04:17:27;19.20;99.90
12604;DHT22;6367;52.508;13.284;2023-07-31T04:19:53;19.20;99.90
12604;DHT22;6367;52.508;13.284;2023-07-31T04:22:18;19.20;99.90
12604;DHT22;6367;52.508;13.284;2023-07-31T04:24:44;19.20;99.90
12604;DHT22;6367;52.508;13.284;2023-07-31T04:27:10;19.20;99.90
12604;DHT22;6367;52.508;13.284;2023-07-31T04:29:36;19.20;99.90
12604;DHT22;6367;52.508;13.284;2023-07-31T04:32:01;19.20;99.90
12604;DHT22;6367;52.508;13.284;2023-07-31T04:34:27;19.20;99.90
12604;DHT22;6367;52.508;13.284;2023-07-31T04:36:53;19.20;99.90
12604;DHT22;6367;52.508;13.284;2023-07-31T04:39:18;19.20;99.90
12604;DHT22;6367;52.508;13.284;2023-07-31T04:41:44;19.20;99.90
12604;DHT22;6367;52.508;13.284;2023-07-31T04:44:09;19.20;99.90
12604;DHT22;6367;52.508;13.284;2023-07-31T04:46:36;19.20;99.90
12604;DHT22;6367;52.508;13.284;2023-07-31T04:49:02;19.20;99.90
12604;DHT22;6367;52.508;13.284;2023-07-31T04:51:28;19.20;99.90
12604;DHT22;6367;52.508;13.284;2023-07-31T04:53:54;19.10;99.90
12604;DHT22;6367;52.508;13.284;2023-07-31T04:56:19;19.20;99.90
12604;DHT22;6367;52.508;13.284;2023-07-31T04:58:45;19.20;99.90
12604;DHT22;6367;52.508;13.284;2023-07-31T05:01:11;19.30;99.90
12604;DHT22;6367;52.508;13.284;2023-07-31T05:03:36;19.20;99.90
12604;DHT22;6367;52.508;13.284;2023-07-31T05:06:02;19.20;99.90
12604;DHT22;6367;52.508;13.284;2023-07-31T05:08:28;19.20;99.90
12604;DHT22;6367;52.508;13.284;2023-07-31T05:10:53;19.30;99.90
12604;DHT22;6367;52.508;13.284;2023-07-31T05:13:19;19.30;99.90
12604;DHT22;6367;52.508;13.284;2023-07-31T05:15:45;19.30;99.90
12604;DHT22;6367;52.508;13.284;2023-07-31T05:18:11;19.30;99.90
12604;DHT22;6367;52.508;13.284;2023-07-31T05:20:36;19.40;99.90
12604;DHT22;6367;52.508;13.284;2023-07-31T05:23:02;19.40;99.90
12604;DHT22;6367;52.508;13.284;2023-07-31T05:25:28;19.40;99.90
12604;DHT22;6367;52.508;13.284;2023-07-31T05:27:53;19.50;99.90
12604;DHT22;6367;52.508;13.284;2023-07-31T05:30:19;19.40;99.90
12604;DHT22;6367;52.508;13.284;2023-07-31T05:32:45;19.40;99.90
12604;DHT22;6367;52.508;13.284;2023-07-31T05:35:10;19.40;99.90
12604;DHT22;6367;52.508;13.284;2023-07-31T05:37:36;19.40;99.90
12604;DHT22;6367;52.508;13.284;2023-07-31T05:40:02;19.50;99.90
12604;DHT22;6367;52.508;13.284;2023-07-31T05:42:27;19.90;99.90
12604;DHT22;6367;52.508;13.284;2023-07-31T05:44:54;19.50;99.90
12604;DHT22;6367;52.508;13.284;2023-07-31T05:47:19;19.50;99.90
12604;DHT22;6367;52.508;13.284;2023-07-31T05:49:45;19.50;99.90
12604;DHT22;6367;52.508;13.284;2023-07-31T05:52:11;19.60;99.90
12604;DHT22;6367;52.508;13.284;2023-07-31T05:54:36;19.60;99.90
12604;DHT22;6367;52.508;13.284;2023-07-31T05:57:02;19.60;99.90
12604;DHT22;6367;52.508;13.284;2023-07-31T05:59:28;19.60;99.90
12604;DHT22;6367;52.508;13.284;2023-07-31T06:01:53;19.60;99.90
12604;DHT22;6367;52.508;13.284;2023-07-31T06:04:19;19.60;99.90
12604;DHT22;6367;52.508;13.284;2023-07-31T06:06:45;19.70;99.90
12604;DHT22;6367;52.508;13.284;2023-07-31T06:09:10;19.70;99.90
12604;DHT22;6367;52.508;13.284;2023-07-31T06:11:37;19.80;99.90
12604;DHT22;6367;52.508;13.284;2023-07-31T06:14:02;19.40;99.90
12604;DHT22;6367;52.508;13.284;2023-07-31T06:16:28;19.90;99.90
12604;DHT22;6367;52.508;13.284;2023-07-31T06:18:54;19.80;99.90
12604;DHT22;6367;52.508;13.284;2023-07-31T06:21:19;19.80;99.90
12604;DHT22;6367;52.508;13.284;2023-07-31T06:23:45;19.80;99.90
12604;DHT22;6367;52.508;13.284;2023-07-31T06:26:11;19.80;99.90
12604;DHT22;6367;52.508;13.284;2023-07-31T06:28:36;19.80;99.90
12604;DHT22;6367;52.508;13.284;2023-07-31T06:31:02;19.80;99.90
12604;DHT22;6367;52.508;13.284;2023-07-31T06:33:28;19.80;99.90
12604;DHT22;6367;52.508;13.284;2023-07-31T06:35:53;19.80;99.90
12604;DHT22;6367;52.508;13.284;2023-07-31T06:38:24;19.90;99.90
12604;DHT22;6367;52.508;13.284;2023-07-31T06:40:50;19.90;99.90
12604;DHT22;6367;52.508;13.284;2023-07-31T06:43:16;19.90;99.90
12604;DHT22;6367;52.508;13.284;2023-07-31T06:45:43;19.90;99.90
12604;DHT22;6367;52.508;13.284;2023-07-31T06:48:09;19.90;99.90
12604;DHT22;6367;52.508;13.284;2023-07-31T06:50:34;20.00;99.90
12604;DHT22;6367;52.508;13.284;2023-07-31T06:53:00;20.10;99.90
12604;DHT22;6367;52.508;13.284;2023-07-31T06:55:26;20.10;99.90
12604;DHT22;6367;52.508;13.284;2023-07-31T06:57:53;20.10;99.90
12604;DHT22;6367;52.508;13.284;2023-07-31T07:00:21;20.10;99.90
12604;DHT22;6367;52.508;13.284;2023-07-31T07:02:47;20.10;99.90
12604;DHT22;6367;52.508;13.284;2023-07-31T07:05:13;20.20;99.90
12604;DHT22;6367;52.508;13.284;2023-07-31T07:07:39;20.20;99.90
12604;DHT22;6367;52.508;13.284;2023-07-31T07:10:05;20.30;99.90
12604;DHT22;6367;52.508;13.284;2023-07-31T07:12:32;20.30;99.90
12604;DHT22;6367;52.508;13.284;2023-07-31T07:14:58;20.10;99.90
12604;DHT22;6367;52.508;13.284;2023-07-31T07:17:24;20.20;99.90
12604;DHT22;6367;52.508;13.284;2023-07-31T07:19:50;20.20;99.90
12604;DHT22;6367;52.508;13.284;2023-07-31T07:22:16;20.20;99.90
12604;DHT22;6367;52.508;13.284;2023-07-31T07:24:42;20.20;99.90
12604;DHT22;6367;52.508;13.284;2023-07-31T07:27:07;20.20;99.90
12604;DHT22;6367;52.508;13.284;2023-07-31T07:29:34;20.10;99.90
12604;DHT22;6367;52.508;13.284;2023-07-31T07:32:00;20.10;99.90
12604;DHT22;6367;52.508;13.284;2023-07-31T07:34:26;20.10;99.90
12604;DHT22;6367;52.508;13.284;2023-07-31T07:36:52;20.20;99.90
12604;DHT22;6367;52.508;13.284;2023-07-31T07:39:18;20.10;99.90
12604;DHT22;6367;52.508;13.284;2023-07-31T07:41:44;20.10;99.90
12604;DHT22;6367;52.508;13.284;2023-07-31T07:44:10;20.10;99.90
12604;DHT22;6367;52.508;13.284;2023-07-31T07:46:35;20.20;99.90
12604;DHT22;6367;52.508;13.284;2023-07-31T07:49:01;20.20;99.90
12604;DHT22;6367;52.508;13.284;2023-07-31T07:51:27;20.20;99.90
12604;DHT22;6367;52.508;13.284;2023-07-31T07:53:52;20.20;99.90
12604;DHT22;6367;52.508;13.284;2023-07-31T07:56:18;20.20;99.90
12604;DHT22;6367;52.508;13.284;2023-07-31T07:58:44;20.10;99.90
12604;DHT22;6367;52.508;13.284;2023-07-31T08:01:09;20.10;99.90
12604;DHT22;6367;52.508;13.284;2023-07-31T08:03:35;20.10;99.90
12604;DHT22;6367;52.508;13.284;2023-07-31T08:06:01;20.10;99.90
12604;DHT22;6367;52.508;13.284;2023-07-31T08:08:28;20.10;99.90
12604;DHT22;6367;52.508;13.284;2023-07-31T08:10:53;20.20;99.90
12604;DHT22;6367;52.508;13.284;2023-07-31T08:13:19;20.20;99.90
12604;DHT22;6367;52.508;13.284;2023-07-31T08:15:45;20.20;99.90
12604;DHT22;6367;52.508;13.284;2023-07-31T08:18:11;20.20;99.90
12604;DHT22;6367;52.508;13.284;2023-07-31T08:20:37;20.10;99.90
12604;DHT22;6367;52.508;13.284;2023-07-31T08:23:03;20.10;99.90
12604;DHT22;6367;52.508;13.284;2023-07-31T08:25:29;20.20;99.90
12604;DHT22;6367;52.508;13.284;2023-07-31T08:27:55;20.20;99.90
12604;DHT22;6367;52.508;13.284;2023-07-31T08:30:21;20.20;99.90
12604;DHT22;6367;52.508;13.284;2023-07-31T08:32:46;20.20;99.90
12604;DHT22;6367;52.508;13.284;2023-07-31T08:35:12;20.20;99.90
12604;DHT22;6367;52.508;13.284;2023-07-31T08:37:38;20.20;99.90
12604;DHT22;6367;52.508;13.284;2023-07-31T08:40:05;20.20;99.90
12604;DHT22;6367;52.508;13.284;2023-07-31T08:42:31;20.20;99.90
12604;DHT22;6367;52.508;13.284;2023-07-31T08:44:58;20.20;99.90
12604;DHT22;6367;52.508;13.284;2023-07-31T08:47:25;20.20;99.90
12604;DHT22;6367;52.508;13.284;2023-07-31T08:49:52;20.20;99.90
12604;DHT22;6367;52.508;13.284;2023-07-31T08:52:18;20.20;99.90
12604;DHT22;6367;52.508;13.284;2023-07-31T08:54:43;20.40;99.90
12604;DHT22;6367;52.508;13.284;2023-07-31T08:57:10;20.50;99.90
12604;DHT22;6367;52.508;13.284;2023-07-31T08:59:37;20.50;99.90
12604;DHT22;6367;52.508;13.284;2023-07-31T09:02:08;20.60;99.90
12604;DHT22;6367;52.508;13.284;2023-07-31T09:04:34;20.70;99.90
12604;DHT22;6367;52.508;13.284;2023-07-31T09:07:01;20.60;99.90
12604;DHT22;6367;52.508;13.284;2023-07-31T09:09:29;20.70;99.90
12604;DHT22;6367;52.508;13.284;2023-07-31T09:11:55;20.70;99.90
12604;DHT22;6367;52.508;13.284;2023-07-31T09:14:21;21.10;99.90
12604;DHT22;6367;52.508;13.284;2023-07-31T09:16:58;20.80;99.90
12604;DHT22;6367;52.508;13.284;2023-07-31T09:19:33;20.80;99.90
12604;DHT22;6367;52.508;13.284;2023-07-31T09:22:00;20.80;99.90
12604;DHT22;6367;52.508;13.284;2023-07-31T09:24:27;20.90;99.90
12604;DHT22;6367;52.508;13.284;2023-07-31T09:26:54;20.80;99.90
12604;DHT22;6367;52.508;13.284;2023-07-31T09:29:20;20.70;99.90
12604;DHT22;6367;52.508;13.284;2023-07-31T09:31:46;20.70;99.90
12604;DHT22;6367;52.508;13.284;2023-07-31T09:34:12;20.60;99.90
12604;DHT22;6367;52.508;13.284;2023-07-31T09:36:45;20.60;99.90
12604;DHT22;6367;52.508;13.284;2023-07-31T09:39:12;20.60;99.90
12604;DHT22;6367;52.508;13.284;2023-07-31T09:41:40;20.50;99.90
12604;DHT22;6367;52.508;13.284;2023-07-31T09:44:06;20.50;99.90
12604;DHT22;6367;52.508;13.284;2023-07-31T09:46:35;20.60;99.90
12604;DHT22;6367;52.508;13.284;2023-07-31T09:49:08;20.60;99.90
12604;DHT22;6367;52.508;13.284;2023-07-31T09:51:35;20.60;99.90
12604;DHT22;6367;52.508;13.284;2023-07-31T09:56:39;20.70;99.90
12604;DHT22;6367;52.508;13.284;2023-07-31T09:59:07;20.70;99.90
12604;DHT22;6367;52.508;13.284;2023-07-31T10:01:33;20.70;99.90
12604;DHT22;6367;52.508;13.284;2023-07-31T10:03:59;20.70;99.90
12604;DHT22;6367;52.508;13.284;2023-07-31T10:06:26;20.60;99.90
12604;DHT22;6367;52.508;13.284;2023-07-31T10:08:52;20.70;99.90
12604;DHT22;6367;52.508;13.284;2023-07-31T10:11:21;20.70;99.90
12604;DHT22;6367;52.508;13.284;2023-07-31T10:13:47;20.70;99.90
12604;DHT22;6367;52.508;13.284;2023-07-31T10:16:14;20.70;99.90
12604;DHT22;6367;52.508;13.284;2023-07-31T10:18:42;20.70;99.90
12604;DHT22;6367;52.508;13.284;2023-07-31T10:21:09;20.80;99.90
12604;DHT22;6367;52.508;13.284;2023-07-31T10:23:36;20.80;99.90
12604;DHT22;6367;52.508;13.284;2023-07-31T10:26:02;20.80;99.90
12604;DHT22;6367;52.508;13.284;2023-07-31T10:28:29;20.80;99.90
12604;DHT22;6367;52.508;13.284;2023-07-31T10:30:57;20.90;99.90
12604;DHT22;6367;52.508;13.284;2023-07-31T10:33:23;21.00;99.90
12604;DHT22;6367;52.508;13.284;2023-07-31T10:35:48;21.00;99.90
12604;DHT22;6367;52.508;13.284;2023-07-31T10:38:14;21.20;99.90
12604;DHT22;6367;52.508;13.284;2023-07-31T10:40:41;21.30;99.90
12604;DHT22;6367;52.508;13.284;2023-07-31T10:43:07;21.30;99.90
12604;DHT22;6367;52.508;13.284;2023-07-31T10:45:39;21.40;99.90
12604;DHT22;6367;52.508;13.284;2023-07-31T10:48:14;21.50;99.90
12604;DHT22;6367;52.508;13.284;2023-07-31T10:50:55;21.70;99.90
12604;DHT22;6367;52.508;13.284;2023-07-31T10:56:00;22.00;99.90
12604;DHT22;6367;52.508;13.284;2023-07-31T10:58:26;22.10;99.90
12604;DHT22;6367;52.508;13.284;2023-07-31T11:00:56;22.20;99.90
12604;DHT22;6367;52.508;13.284;2023-07-31T11:03:25;22.30;99.90
12604;DHT22;6367;52.508;13.284;2023-07-31T11:06:01;22.40;99.90
12604;DHT22;6367;52.508;13.284;2023-07-31T11:08:41;22.50;99.90
12604;DHT22;6367;52.508;13.284;2023-07-31T11:11:08;22.70;99.90
12604;DHT22;6367;52.508;13.284;2023-07-31T11:16:06;22.70;99.90
12604;DHT22;6367;52.508;13.284;2023-07-31T11:18:32;22.70;99.90
12604;DHT22;6367;52.508;13.284;2023-07-31T11:20:58;22.50;99.90
12604;DHT22;6367;52.508;13.284;2023-07-31T11:23:24;22.80;99.90
12604;DHT22;6367;52.508;13.284;2023-07-31T11:25:50;22.90;99.90
12604;DHT22;6367;52.508;13.284;2023-07-31T11:28:17;22.80;99.90
12604;DHT22;6367;52.508;13.284;2023-07-31T11:30:44;22.90;99.90
12604;DHT22;6367;52.508;13.284;2023-07-31T11:33:13;22.90;99.90
12604;DHT22;6367;52.508;13.284;2023-07-31T11:35:46;23.00;99.90
12604;DHT22;6367;52.508;13.284;2023-07-31T11:38:20;23.10;99.90
12604;DHT22;6367;52.508;13.284;2023-07-31T11:40:48;23.10;99.90
12604;DHT22;6367;52.508;13.284;2023-07-31T11:43:13;23.20;99.90
12604;DHT22;6367;52.508;13.284;2023-07-31T11:45:46;23.10;99.90
12604;DHT22;6367;52.508;13.284;2023-07-31T11:48:26;22.60;99.90
12604;DHT22;6367;52.508;13.284;2023-07-31T11:50:54;23.10;99.90
12604;DHT22;6367;52.508;13.284;2023-07-31T11:53:33;23.10;99.90
12604;DHT22;6367;52.508;13.284;2023-07-31T11:56:01;23.00;99.90
12604;DHT22;6367;52.508;13.284;2023-07-31T11:58:31;23.00;99.90
12604;DHT22;6367;52.508;13.284;2023-07-31T12:00:58;23.00;99.90
12604;DHT22;6367;52.508;13.284;2023-07-31T12:03:24;22.90;99.90
12604;DHT22;6367;52.508;13.284;2023-07-31T12:05:50;22.90;99.90
12604;DHT22;6367;52.508;13.284;2023-07-31T12:08:15;22.90;99.90
12604;DHT22;6367;52.508;13.284;2023-07-31T12:10:41;22.90;99.90
12604;DHT22;6367;52.508;13.284;2023-07-31T12:13:12;22.90;99.90
12604;DHT22;6367;52.508;13.284;2023-07-31T12:15:45;22.90;99.90
12604;DHT22;6367;52.508;13.284;2023-07-31T12:18:13;23.00;99.90
12604;DHT22;6367;52.508;13.284;2023-07-31T12:20:54;23.50;99.90
12604;DHT22;6367;52.508;13.284;2023-07-31T12:23:22;23.00;99.90
12604;DHT22;6367;52.508;13.284;2023-07-31T12:26:23;23.00;99.90
12604;DHT22;6367;52.508;13.284;2023-07-31T12:28:50;23.10;99.90
12604;DHT22;6367;52.508;13.284;2023-07-31T12:31:21;23.20;99.90
12604;DHT22;6367;52.508;13.284;2023-07-31T12:33:50;23.20;99.90
12604;DHT22;6367;52.508;13.284;2023-07-31T12:36:21;23.30;99.90
12604;DHT22;6367;52.508;13.284;2023-07-31T12:38:47;23.40;99.90
12604;DHT22;6367;52.508;13.284;2023-07-31T12:41:13;23.40;99.90
12604;DHT22;6367;52.508;13.284;2023-07-31T12:43:41;23.50;99.90
12604;DHT22;6367;52.508;13.284;2023-07-31T12:46:07;23.50;99.90
12604;DHT22;6367;52.508;13.284;2023-07-31T12:48:33;23.50;99.90
12604;DHT22;6367;52.508;13.284;2023-07-31T12:51:00;23.50;99.90
12604;DHT22;6367;52.508;13.284;2023-07-31T12:53:25;23.50;99.90
12604;DHT22;6367;52.508;13.284;2023-07-31T12:55:51;23.50;99.90
12604;DHT22;6367;52.508;13.284;2023-07-31T12:58:17;23.50;99.90
12604;DHT22;6367;52.508;13.284;2023-07-31T13:00:42;23.50;99.90
12604;DHT22;6367;52.508;13.284;2023-07-31T13:03:08;23.50;99.90
12604;DHT22;6367;52.508;13.284;2023-07-31T13:05:34;23.40;99.90
12604;DHT22;6367;52.508;13.284;2023-07-31T13:08:00;23.40;99.90
12604;DHT22;6367;52.508;13.284;2023-07-31T13:10:27;23.30;99.90
12604;DHT22;6367;52.508;13.284;2023-07-31T13:12:54;23.30;99.90
12604;DHT22;6367;52.508;13.284;2023-07-31T13:15:20;23.40;99.90
12604;DHT22;6367;52.508;13.284;2023-07-31T13:17:46;23.50;99.90
12604;DHT22;6367;52.508;13.284;2023-07-31T13:20:12;23.50;99.90
12604;DHT22;6367;52.508;13.284;2023-07-31T13:22:37;23.50;99.90
12604;DHT22;6367;52.508;13.284;2023-07-31T13:25:03;23.50;99.90
12604;DHT22;6367;52.508;13.284;2023-07-31T13:27:29;23.40;99.90
12604;DHT22;6367;52.508;13.284;2023-07-31T13:29:55;23.50;99.90
12604;DHT22;6367;52.508;13.284;2023-07-31T13:32:21;23.30;99.90
12604;DHT22;6367;52.508;13.284;2023-07-31T13:34:47;23.40;99.90
12604;DHT22;6367;52.508;13.284;2023-07-31T13:37:16;23.40;99.90
12604;DHT22;6367;52.508;13.284;2023-07-31T13:39:43;23.50;99.90
12604;DHT22;6367;52.508;13.284;2023-07-31T13:42:09;23.50;99.90
12604;DHT22;6367;52.508;13.284;2023-07-31T13:44:40;23.60;99.90
12604;DHT22;6367;52.508;13.284;2023-07-31T13:47:07;23.60;99.90
12604;DHT22;6367;52.508;13.284;2023-07-31T13:49:34;23.60;99.90
12604;DHT22;6367;52.508;13.284;2023-07-31T13:52:02;23.70;99.90
12604;DHT22;6367;52.508;13.284;2023-07-31T13:54:27;23.70;99.90
12604;DHT22;6367;52.508;13.284;2023-07-31T13:56:53;23.80;99.90
12604;DHT22;6367;52.508;13.284;2023-07-31T13:59:19;23.80;99.90
12604;DHT22;6367;52.508;13.284;2023-07-31T14:01:45;23.80;99.90
12604;DHT22;6367;52.508;13.284;2023-07-31T14:04:12;23.80;99.90
12604;DHT22;6367;52.508;13.284;2023-07-31T14:06:38;23.70;99.90
12604;DHT22;6367;52.508;13.284;2023-07-31T14:09:04;23.60;99.90
12604;DHT22;6367;52.508;13.284;2023-07-31T14:11:31;23.70;99.90
12604;DHT22;6367;52.508;13.284;2023-07-31T14:13:57;23.60;99.90
12604;DHT22;6367;52.508;13.284;2023-07-31T14:16:23;23.60;99.90
12604;DHT22;6367;52.508;13.284;2023-07-31T14:18:48;23.70;99.90
12604;DHT22;6367;52.508;13.284;2023-07-31T14:21:14;23.60;99.90
12604;DHT22;6367;52.508;13.284;2023-07-31T14:23:41;23.70;99.90
12604;DHT22;6367;52.508;13.284;2023-07-31T14:26:07;23.60;99.90
12604;DHT22;6367;52.508;13.284;2023-07-31T14:28:32;23.60;99.90
12604;DHT22;6367;52.508;13.284;2023-07-31T14:30:58;23.60;99.90
12604;DHT22;6367;52.508;13.284;2023-07-31T14:33:24;23.60;99.90
12604;DHT22;6367;52.508;13.284;2023-07-31T14:35:50;23.70;99.90
12604;DHT22;6367;52.508;13.284;2023-07-31T14:38:15;23.70;99.90
12604;DHT22;6367;52.508;13.284;2023-07-31T14:40:41;23.80;99.90
12604;DHT22;6367;52.508;13.284;2023-07-31T14:43:10;23.70;99.90
12604;DHT22;6367;52.508;13.284;2023-07-31T14:45:36;23.80;99.90
12604;DHT22;6367;52.508;13.284;2023-07-31T14:48:01;23.80;99.90
12604;DHT22;6367;52.508;13.284;2023-07-31T14:50:28;23.80;99.90
12604;DHT22;6367;52.508;13.284;2023-07-31T14:52:54;23.80;99.90
12604;DHT22;6367;52.508;13.284;2023-07-31T14:55:19;23.70;99.90
12604;DHT22;6367;52.508;13.284;2023-07-31T14:57:45;23.70;99.90
12604;DHT22;6367;52.508;13.284;2023-07-31T15:00:11;23.70;99.90
12604;DHT22;6367;52.508;13.284;2023-07-31T15:02:38;23.70;99.90
12604;DHT22;6367;52.508;13.284;2023-07-31T15:05:04;23.70;99.90
12604;DHT22;6367;52.508;13.284;2023-07-31T15:07:30;23.70;99.90
12604;DHT22;6367;52.508;13.284;2023-07-31T15:09:56;23.70;99.90
12604;DHT22;6367;52.508;13.284;2023-07-31T15:12:21;24.10;99.90
12604;DHT22;6367;52.508;13.284;2023-07-31T15:14:48;23.70;99.90
12604;DHT22;6367;52.508;13.284;2023-07-31T15:17:14;23.70;99.90
12604;DHT22;6367;52.508;13.284;2023-07-31T15:19:40;23.60;99.90
12604;DHT22;6367;52.508;13.284;2023-07-31T15:22:06;23.60;99.90
12604;DHT22;6367;52.508;13.284;2023-07-31T15:24:32;23.60;99.90
12604;DHT22;6367;52.508;13.284;2023-07-31T15:26:58;23.60;99.90
12604;DHT22;6367;52.508;13.284;2023-07-31T15:29:24;23.60;99.90
12604;DHT22;6367;52.508;13.284;2023-07-31T15:31:50;23.60;99.90
12604;DHT22;6367;52.508;13.284;2023-07-31T15:34:16;23.60;99.90
12604;DHT22;6367;52.508;13.284;2023-07-31T15:36:41;23.50;99.90